sensor_id;sensor_type;location;lat;lon;timestamp;pressure;altitude;pressure_sealevel;temperature;humidity
49315;BME280;36672;50.710;12.498;2023-01-26T00:00:50;99131.72;;;-0.36;77.79
49315;BME280;36672;50.710;12.498;2023-01-26T00:03:16;99141.81;;;-0.28;78.02
49315;BME280;36672;50.710;12.498;2023-01-26T00:05:42;99130.91;;;-0.36;77.79
49315;BME280;36672;50.710;12.498;2023-01-26T00:08:08;99130.91;;;-0.36;77.84
49315;BME280;36672;50.710;12.498;2023-01-26T00:10:40;99119.03;;;-0.43;77.64
49315;BME280;36672;50.710;12.498;2023-01-26T00:13:08;99128.13;;;-0.35;77.76
49315;BME280;36672;50.710;12.498;2023-01-26T00:15:35;99130.06;;;-0.37;77.68
49315;BME280;36672;50.710;12.498;2023-01-26T00:18:01;99111.44;;;-0.48;77.50
49315;BME280;36672;50.710;12.498;2023-01-26T00:20:28;99079.25;;;-0.68;77.70
49315;BME280;36672;50.710;12.498;2023-01-26T00:22:53;99124.84;;;-0.38;78.01
49315;BME280;36672;50.710;12.498;2023-01-26T00:25:19;99110.97;;;-0.42;77.67
49315;BME280;36672;50.710;12.498;2023-01-26T00:27:44;99105.06;;;-0.45;77.66
49315;BME280;36672;50.710;12.498;2023-01-26T00:30:10;99114.34;;;-0.40;77.78
49315;BME280;36672;50.710;12.498;2023-01-26T00:32:36;99107.09;;;-0.49;77.79
49315;BME280;36672;50.710;12.498;2023-01-26T00:35:02;99091.28;;;-0.51;77.97
49315;BME280;36672;50.710;12.498;2023-01-26T00:37:28;99086.06;;;-0.52;77.57
49315;BME280;36672;50.710;12.498;2023-01-26T00:39:53;99087.53;;;-0.48;77.71
49315;BME280;36672;50.710;12.498;2023-01-26T00:42:18;99092.59;;;-0.45;77.84
49315;BME280;36672;50.710;12.498;2023-01-26T00:44:44;99098.78;;;-0.33;78.10
49315;BME280;36672;50.710;12.498;2023-01-26T00:47:11;99100.50;;;-0.32;77.60
49315;BME280;36672;50.710;12.498;2023-01-26T00:49:37;99089.25;;;-0.36;77.56
49315;BME280;36672;50.710;12.498;2023-01-26T00:52:03;99104.84;;;-0.31;77.78
49315;BME280;36672;50.710;12.498;2023-01-26T00:54:28;99098.28;;;-0.38;77.91
49315;BME280;36672;50.710;12.498;2023-01-26T00:56:54;99105.09;;;-0.34;77.62
49315;BME280;36672;50.710;12.498;2023-01-26T00:59:20;99104.22;;;-0.35;77.40
49315;BME280;36672;50.710;12.498;2023-01-26T01:01:46;99107.84;;;-0.36;77.60
49315;BME280;36672;50.710;12.498;2023-01-26T01:04:12;99105.56;;;-0.40;77.29
49315;BME280;36672;50.710;12.498;2023-01-26T01:06:37;99114.97;;;-0.36;77.41
49315;BME280;36672;50.710;12.498;2023-01-26T01:09:03;99086.69;;;-0.48;77.29
49315;BME280;36672;50.710;12.498;2023-01-26T01:11:28;99093.22;;;-0.41;77.04
49315;BME280;36672;50.710;12.498;2023-01-26T01:13:53;99090.19;;;-0.48;77.05
49315;BME280;36672;50.710;12.498;2023-01-26T01:16:19;99098.75;;;-0.44;77.24
49315;BME280;36672;50.710;12.498;2023-01-26T01:18:44;99108.81;;;-0.37;76.98
49315;BME280;36672;50.710;12.498;2023-01-26T01:21:12;99105.66;;;-0.42;76.94
49315;BME280;36672;50.710;12.498;2023-01-26T01:23:38;99090.56;;;-0.41;76.94
49315;BME280;36672;50.710;12.498;2023-01-26T01:26:04;99100.38;;;-0.42;76.95
49315;BME280;36672;50.710;12.498;2023-01-26T01:28:31;99111.56;;;-0.38;77.13
49315;BME280;36672;50.710;12.498;2023-01-26T01:30:56;99089.97;;;-0.45;76.98
49315;BME280;36672;50.710;12.498;2023-01-26T01:33:22;99099.50;;;-0.42;76.70
49315;BME280;36672;50.710;12.498;2023-01-26T01:35:58;99095.22;;;-0.56;76.77
49315;BME280;36672;50.710;12.498;2023-01-26T01:38:24;99101.78;;;-0.49;77.13
49315;BME280;36672;50.710;12.498;2023-01-26T01:40:50;99104.44;;;-0.49;76.84
49315;BME280;36672;50.710;12.498;2023-01-26T01:43:16;99106.34;;;-0.51;76.76
49315;BME280;36672;50.710;12.498;2023-01-26T01:45:44;99106.00;;;-0.46;77.05
49315;BME280;36672;50.710;12.498;2023-01-26T01:51:09;99092.03;;;-0.37;76.91
49315;BME280;36672;50.710;12.498;2023-01-26T01:53:38;99101.56;;;-0.35;76.67
49315;BME280;36672;50.710;12.498;2023-01-26T01:56:09;99074.16;;;-0.46;76.71
49315;BME280;36672;50.710;12.498;2023-01-26T01:58:38;99076.81;;;-0.46;76.61
49315;BME280;36672;50.710;12.498;2023-01-26T02:01:05;99093.97;;;-0.39;76.94
49315;BME280;36672;50.710;12.498;2023-01-26T02:03:32;99087.81;;;-0.40;77.03
49315;BME280;36672;50.710;12.498;2023-01-26T02:06:04;99081.41;;;-0.37;77.03
49315;BME280;36672;50.710;12.498;2023-01-26T02:08:36;99057.47;;;-0.48;76.89
49315;BME280;36672;50.710;12.498;2023-01-26T02:14:17;99054.16;;;-0.39;77.45
49315;BME280;36672;50.710;12.498;2023-01-26T02:16:42;99058.00;;;-0.32;76.83
49315;BME280;36672;50.710;12.498;2023-01-26T02:19:14;99054.19;;;-0.28;77.09
49315;BME280;36672;50.710;12.498;2023-01-26T02:21:41;99049.56;;;-0.37;76.41
49315;BME280;36672;50.710;12.498;2023-01-26T02:24:21;99025.88;;;-0.52;76.90
49315;BME280;36672;50.710;12.498;2023-01-26T02:26:48;99036.16;;;-0.36;77.15
49315;BME280;36672;50.710;12.498;2023-01-26T02:29:13;99018.16;;;-0.43;76.83
49315;BME280;36672;50.710;12.498;2023-01-26T02:31:39;99009.81;;;-0.50;76.90
49315;BME280;36672;50.710;12.498;2023-01-26T02:34:05;99023.25;;;-0.40;77.18
49315;BME280;36672;50.710;12.498;2023-01-26T02:36:32;99026.41;;;-0.35;76.93
49315;BME280;36672;50.710;12.498;2023-01-26T02:42:00;99020.97;;;-0.34;76.88
49315;BME280;36672;50.710;12.498;2023-01-26T02:44:44;99023.00;;;-0.37;77.04
49315;BME280;36672;50.710;12.498;2023-01-26T02:47:15;99013.81;;;-0.33;77.25
49315;BME280;36672;50.710;12.498;2023-01-26T02:49:41;98998.28;;;-0.38;77.16
49315;BME280;36672;50.710;12.498;2023-01-26T02:52:15;98985.00;;;-0.38;77.18
49315;BME280;36672;50.710;12.498;2023-01-26T02:54:41;98992.97;;;-0.38;76.62
49315;BME280;36672;50.710;12.498;2023-01-26T02:57:25;99000.06;;;-0.38;76.58
49315;BME280;36672;50.710;12.498;2023-01-26T02:59:50;98984.38;;;-0.41;76.92
49315;BME280;36672;50.710;12.498;2023-01-26T03:02:16;98957.22;;;-0.56;77.01
49315;BME280;36672;50.710;12.498;2023-01-26T03:04:41;98988.38;;;-0.36;76.71
49315;BME280;36672;50.710;12.498;2023-01-26T03:07:08;98984.38;;;-0.41;76.78
49315;BME280;36672;50.710;12.498;2023-01-26T03:09:33;98965.78;;;-0.53;76.90
49315;BME280;36672;50.710;12.498;2023-01-26T03:11:58;98963.13;;;-0.53;76.77
49315;BME280;36672;50.710;12.498;2023-01-26T03:14:24;98973.50;;;-0.50;77.04
49315;BME280;36672;50.710;12.498;2023-01-26T03:16:49;98981.47;;;-0.38;76.93
49315;BME280;36672;50.710;12.498;2023-01-26T03:19:15;98979.06;;;-0.41;76.72
49315;BME280;36672;50.710;12.498;2023-01-26T03:22:00;98973.50;;;-0.38;76.93
49315;BME280;36672;50.710;12.498;2023-01-26T03:24:44;98972.41;;;-0.47;76.44
49315;BME280;36672;50.710;12.498;2023-01-26T03:27:47;98972.41;;;-0.47;76.63
49315;BME280;36672;50.710;12.498;2023-01-26T03:30:16;98970.84;;;-0.50;77.16
49315;BME280;36672;50.710;12.498;2023-01-26T03:32:42;98970.63;;;-0.46;76.55
49315;BME280;36672;50.710;12.498;2023-01-26T03:35:08;98968.19;;;-0.50;77.02
49315;BME280;36672;50.710;12.498;2023-01-26T03:37:42;98975.06;;;-0.47;76.91
49315;BME280;36672;50.710;12.498;2023-01-26T03:40:10;98966.41;;;-0.49;77.12
49315;BME280;36672;50.710;12.498;2023-01-26T03:42:54;98967.00;;;-0.45;77.38
49315;BME280;36672;50.710;12.498;2023-01-26T03:45:38;98951.78;;;-0.55;76.73
49315;BME280;36672;50.710;12.498;2023-01-26T03:48:22;98960.22;;;-0.50;77.19
49315;BME280;36672;50.710;12.498;2023-01-26T03:51:06;98952.16;;;-0.59;77.28
49315;BME280;36672;50.710;12.498;2023-01-26T03:53:50;98968.31;;;-0.51;77.56
49315;BME280;36672;50.710;12.498;2023-01-26T03:56:34;98961.44;;;-0.54;77.03
49315;BME280;36672;50.710;12.498;2023-01-26T03:59:04;98967.09;;;-0.47;77.25
49315;BME280;36672;50.710;12.498;2023-01-26T04:01:37;98964.56;;;-0.48;77.38
49315;BME280;36672;50.710;12.498;2023-01-26T04:04:03;98961.22;;;-0.51;77.37
49315;BME280;36672;50.710;12.498;2023-01-26T04:06:48;98948.78;;;-0.50;77.24
49315;BME280;36672;50.710;12.498;2023-01-26T04:09:33;98965.69;;;-0.40;77.14
49315;BME280;36672;50.710;12.498;2023-01-26T04:12:01;98944.69;;;-0.54;77.07
49315;BME280;36672;50.710;12.498;2023-01-26T04:14:26;98942.84;;;-0.54;76.98
49315;BME280;36672;50.710;12.498;2023-01-26T04:17:10;98960.84;;;-0.46;77.04
49315;BME280;36672;50.710;12.498;2023-01-26T04:19:54;98950.81;;;-0.54;76.79
49315;BME280;36672;50.710;12.498;2023-01-26T04:22:39;98958.66;;;-0.52;76.83
49315;BME280;36672;50.710;12.498;2023-01-26T04:25:13;98962.38;;;-0.55;77.07
49315;BME280;36672;50.710;12.498;2023-01-26T04:27:40;98960.72;;;-0.56;77.11
49315;BME280;36672;50.710;12.498;2023-01-26T04:30:07;98945.28;;;-0.62;77.03
49315;BME280;36672;50.710;12.498;2023-01-26T04:32:33;98944.53;;;-0.64;76.90
49315;BME280;36672;50.710;12.498;2023-01-26T04:34:58;98961.31;;;-0.52;77.04
49315;BME280;36672;50.710;12.498;2023-01-26T04:37:23;98965.66;;;-0.51;77.11
49315;BME280;36672;50.710;12.498;2023-01-26T04:39:49;98961.31;;;-0.52;77.05
49315;BME280;36672;50.710;12.498;2023-01-26T04:42:14;98957.81;;;-0.53;77.13
49315;BME280;36672;50.710;12.498;2023-01-26T04:44:39;98950.44;;;-0.60;77.13
49315;BME280;36672;50.710;12.498;2023-01-26T04:47:05;98939.34;;;-0.66;77.13
49315;BME280;36672;50.710;12.498;2023-01-26T04:49:30;98946.69;;;-0.69;77.41
49315;BME280;36672;50.710;12.498;2023-01-26T04:51:55;98941.75;;;-0.62;76.84
49315;BME280;36672;50.710;12.498;2023-01-26T04:54:21;98946.34;;;-0.64;77.44
49315;BME280;36672;50.710;12.498;2023-01-26T04:56:46;98955.63;;;-0.59;77.49
49315;BME280;36672;50.710;12.498;2023-01-26T04:59:12;98945.84;;;-0.58;77.42
49315;BME280;36672;50.710;12.498;2023-01-26T05:01:38;98935.00;;;-0.67;77.54
49315;BME280;36672;50.710;12.498;2023-01-26T05:04:04;98927.03;;;-0.67;77.36
49315;BME280;36672;50.710;12.498;2023-01-26T05:06:30;98945.75;;;-0.57;77.82
49315;BME280;36672;50.710;12.498;2023-01-26T05:08:56;98942.84;;;-0.54;77.78
49315;BME280;36672;50.710;12.498;2023-01-26T05:11:21;98942.38;;;-0.59;77.95
49315;BME280;36672;50.710;12.498;2023-01-26T05:13:46;98936.09;;;-0.58;77.91
49315;BME280;36672;50.710;12.498;2023-01-26T05:16:12;98952.16;;;-0.48;78.01
49315;BME280;36672;50.710;12.498;2023-01-26T05:18:39;98941.91;;;-0.53;77.69
49315;BME280;36672;50.710;12.498;2023-01-26T05:21:05;98936.09;;;-0.58;77.64
49315;BME280;36672;50.710;12.498;2023-01-26T05:23:30;98933.56;;;-0.59;77.82
49315;BME280;36672;50.710;12.498;2023-01-26T05:25:55;98957.09;;;-0.43;77.91
49315;BME280;36672;50.710;12.498;2023-01-26T05:28:21;98955.31;;;-0.43;77.96
49315;BME280;36672;50.710;12.498;2023-01-26T05:30:46;98955.41;;;-0.44;77.63
49315;BME280;36672;50.710;12.498;2023-01-26T05:33:12;98949.13;;;-0.43;77.80
49315;BME280;36672;50.710;12.498;2023-01-26T05:35:37;98956.75;;;-0.39;77.43
49315;BME280;36672;50.710;12.498;2023-01-26T05:38:03;98940.19;;;-0.54;77.84
49315;BME280;36672;50.710;12.498;2023-01-26T05:40:28;98953.63;;;-0.44;77.71
49315;BME280;36672;50.710;12.498;2023-01-26T05:42:54;98942.25;;;-0.57;78.09
49315;BME280;36672;50.710;12.498;2023-01-26T05:45:20;98952.63;;;-0.54;77.92
49315;BME280;36672;50.710;12.498;2023-01-26T05:47:46;98952.38;;;-0.51;77.89
49315;BME280;36672;50.710;12.498;2023-01-26T05:50:13;98946.38;;;-0.53;78.13
49315;BME280;36672;50.710;12.498;2023-01-26T05:52:39;98955.28;;;-0.54;78.18
49315;BME280;36672;50.710;12.498;2023-01-26T05:55:05;98962.88;;;-0.50;78.29
49315;BME280;36672;50.710;12.498;2023-01-26T05:57:31;98969.88;;;-0.48;78.09
49315;BME280;36672;50.710;12.498;2023-01-26T05:59:56;98959.53;;;-0.52;78.38
49315;BME280;36672;50.710;12.498;2023-01-26T06:02:22;98957.94;;;-0.54;78.41
49315;BME280;36672;50.710;12.498;2023-01-26T06:04:48;98954.69;;;-0.58;78.39
49315;BME280;36672;50.710;12.498;2023-01-26T06:07:13;98966.53;;;-0.51;78.27
49315;BME280;36672;50.710;12.498;2023-01-26T06:09:39;98953.81;;;-0.58;78.59
49315;BME280;36672;50.710;12.498;2023-01-26T06:12:06;98955.63;;;-0.59;78.77
49315;BME280;36672;50.710;12.498;2023-01-26T06:14:31;98953.22;;;-0.62;78.50
49315;BME280;36672;50.710;12.498;2023-01-26T06:16:57;98957.81;;;-0.64;79.09
49315;BME280;36672;50.710;12.498;2023-01-26T06:19:22;98966.75;;;-0.54;78.81
49315;BME280;36672;50.710;12.498;2023-01-26T06:21:47;98962.84;;;-0.61;78.92
49315;BME280;36672;50.710;12.498;2023-01-26T06:24:13;98965.78;;;-0.53;79.33
49315;BME280;36672;50.710;12.498;2023-01-26T06:26:38;98977.13;;;-0.51;79.18
49315;BME280;36672;50.710;12.498;2023-01-26T06:29:04;98974.72;;;-0.54;78.95
49315;BME280;36672;50.710;12.498;2023-01-26T06:31:29;98981.72;;;-0.53;79.20
49315;BME280;36672;50.710;12.498;2023-01-26T06:33:55;98969.03;;;-0.60;79.60
49315;BME280;36672;50.710;12.498;2023-01-26T06:36:20;98957.81;;;-0.64;79.22
49315;BME280;36672;50.710;12.498;2023-01-26T06:38:47;98965.28;;;-0.58;79.45
49315;BME280;36672;50.710;12.498;2023-01-26T06:41:13;98968.78;;;-0.57;79.60
49315;BME280;36672;50.710;12.498;2023-01-26T06:43:47;98971.44;;;-0.57;79.48
49315;BME280;36672;50.710;12.498;2023-01-26T06:46:12;98960.34;;;-0.62;79.51
49315;BME280;36672;50.710;12.498;2023-01-26T06:48:38;98949.56;;;-0.72;79.31
49315;BME280;36672;50.710;12.498;2023-01-26T06:53:50;98951.00;;;-0.79;79.63
49315;BME280;36672;50.710;12.498;2023-01-26T06:56:19;98964.53;;;-0.71;79.84
49315;BME280;36672;50.710;12.498;2023-01-26T06:58:44;98959.47;;;-0.74;79.50
49315;BME280;36672;50.710;12.498;2023-01-26T07:01:18;98970.31;;;-0.66;79.92
49315;BME280;36672;50.710;12.498;2023-01-26T07:03:46;98963.34;;;-0.67;80.16
49315;BME280;36672;50.710;12.498;2023-01-26T07:06:12;98942.31;;;-0.82;79.85
49315;BME280;36672;50.710;12.498;2023-01-26T07:08:38;98970.13;;;-0.63;79.81
49315;BME280;36672;50.710;12.498;2023-01-26T07:11:05;98959.34;;;-0.73;79.77
49315;BME280;36672;50.710;12.498;2023-01-26T07:13:30;98970.31;;;-0.66;79.92
49315;BME280;36672;50.710;12.498;2023-01-26T07:16:07;98963.69;;;-0.72;80.17
49315;BME280;36672;50.710;12.498;2023-01-26T07:18:34;98972.28;;;-0.68;80.17
49315;BME280;36672;50.710;12.498;2023-01-26T07:21:01;98963.31;;;-0.78;80.25
49315;BME280;36672;50.710;12.498;2023-01-26T07:23:26;98956.06;;;-0.76;80.27
49315;BME280;36672;50.710;12.498;2023-01-26T07:25:52;98972.63;;;-0.73;80.27
49315;BME280;36672;50.710;12.498;2023-01-26T07:28:17;98976.72;;;-0.69;80.38
49315;BME280;36672;50.710;12.498;2023-01-26T07:30:43;98957.16;;;-0.79;80.54
49315;BME280;36672;50.710;12.498;2023-01-26T07:33:08;98970.78;;;-0.72;80.55
49315;BME280;36672;50.710;12.498;2023-01-26T07:35:33;98969.00;;;-0.72;80.48
49315;BME280;36672;50.710;12.498;2023-01-26T07:37:59;98966.84;;;-0.67;81.00
49315;BME280;36672;50.710;12.498;2023-01-26T07:40:24;98979.16;;;-0.66;80.56
49315;BME280;36672;50.710;12.498;2023-01-26T07:42:49;98971.56;;;-0.59;81.02
49315;BME280;36672;50.710;12.498;2023-01-26T07:45:15;98977.69;;;-0.58;80.84
49315;BME280;36672;50.710;12.498;2023-01-26T07:47:42;98954.03;;;-0.73;80.96
49315;BME280;36672;50.710;12.498;2023-01-26T07:50:09;98962.38;;;-0.66;80.97
49315;BME280;36672;50.710;12.498;2023-01-26T07:52:35;98969.16;;;-0.62;81.05
49315;BME280;36672;50.710;12.498;2023-01-26T07:55:01;98971.81;;;-0.62;81.17
49315;BME280;36672;50.710;12.498;2023-01-26T07:57:26;98970.72;;;-0.59;81.18
49315;BME280;36672;50.710;12.498;2023-01-26T07:59:51;98971.19;;;-0.66;80.97
49315;BME280;36672;50.710;12.498;2023-01-26T08:02:17;98975.28;;;-0.61;81.21
49315;BME280;36672;50.710;12.498;2023-01-26T08:04:42;98953.81;;;-0.70;80.97
49315;BME280;36672;50.710;12.498;2023-01-26T08:07:07;98966.75;;;-0.54;81.31
49315;BME280;36672;50.710;12.498;2023-01-26T08:09:32;98968.44;;;-0.53;81.25
49315;BME280;36672;50.710;12.498;2023-01-26T08:11:58;98975.44;;;-0.52;81.17
49315;BME280;36672;50.710;12.498;2023-01-26T08:14:23;98968.94;;;-0.47;81.54
49315;BME280;36672;50.710;12.498;2023-01-26T08:16:49;98953.47;;;-0.54;81.18
49315;BME280;36672;50.710;12.498;2023-01-26T08:19:14;98951.16;;;-0.58;81.47
49315;BME280;36672;50.710;12.498;2023-01-26T08:21:39;98962.03;;;-0.50;81.26
49315;BME280;36672;50.710;12.498;2023-01-26T08:24:05;98969.88;;;-0.48;80.81
49315;BME280;36672;50.710;12.498;2023-01-26T08:26:31;98962.03;;;-0.50;81.17
49315;BME280;36672;50.710;12.498;2023-01-26T08:28:57;98959.13;;;-0.58;81.34
49315;BME280;36672;50.710;12.498;2023-01-26T08:31:22;98970.84;;;-0.50;81.17
49315;BME280;36672;50.710;12.498;2023-01-26T08:33:50;98953.81;;;-0.58;81.15
49315;BME280;36672;50.710;12.498;2023-01-26T08:36:17;98948.63;;;-0.60;81.32
49315;BME280;36672;50.710;12.498;2023-01-26T08:38:43;98958.31;;;-0.47;81.50
49315;BME280;36672;50.710;12.498;2023-01-26T08:41:09;98957.47;;;-0.48;81.35
49315;BME280;36672;50.710;12.498;2023-01-26T08:43:35;98953.00;;;-0.47;81.10
49315;BME280;36672;50.710;12.498;2023-01-26T08:46:00;98946.72;;;-0.46;81.25
49315;BME280;36672;50.710;12.498;2023-01-26T08:48:26;98948.19;;;-0.42;81.47
49315;BME280;36672;50.710;12.498;2023-01-26T08:50:56;98912.22;;;-0.58;81.19
49315;BME280;36672;50.710;12.498;2023-01-26T08:53:22;98944.78;;;-0.33;81.18
49315;BME280;36672;50.710;12.498;2023-01-26T08:55:48;98950.09;;;-0.33;81.29
49315;BME280;36672;50.710;12.498;2023-01-26T08:58:14;98948.66;;;-0.37;81.12
49315;BME280;36672;50.710;12.498;2023-01-26T09:00:39;98930.69;;;-0.45;80.77
49315;BME280;36672;50.710;12.498;2023-01-26T09:03:06;98958.94;;;-0.32;80.58
49315;BME280;36672;50.710;12.498;2023-01-26T09:05:33;98955.41;;;-0.33;80.17
49315;BME280;36672;50.710;12.498;2023-01-26T09:07:59;98959.53;;;-0.29;80.29
49315;BME280;36672;50.710;12.498;2023-01-26T09:10:25;98961.47;;;-0.31;80.22
49315;BME280;36672;50.710;12.498;2023-01-26T09:12:51;98972.22;;;-0.21;80.06
49315;BME280;36672;50.710;12.498;2023-01-26T09:15:16;98967.38;;;-0.27;79.96
49315;BME280;36672;50.710;12.498;2023-01-26T09:17:42;98978.00;;;-0.16;79.92
49315;BME280;36672;50.710;12.498;2023-01-26T09:20:11;98964.47;;;-0.24;79.72
49315;BME280;36672;50.710;12.498;2023-01-26T09:22:36;98964.97;;;-0.19;79.57
49315;BME280;36672;50.710;12.498;2023-01-26T09:25:02;98975.72;;;-0.09;79.42
49315;BME280;36672;50.710;12.498;2023-01-26T09:27:28;98970.78;;;-0.14;79.26
49315;BME280;36672;50.710;12.498;2023-01-26T09:29:53;98970.28;;;-0.08;79.18
49315;BME280;36672;50.710;12.498;2023-01-26T09:32:19;98962.44;;;-0.09;79.15
49315;BME280;36672;50.710;12.498;2023-01-26T09:34:44;98962.91;;;-0.04;78.81
49315;BME280;36672;50.710;12.498;2023-01-26T09:37:10;98979.94;;;0.05;78.62
49315;BME280;36672;50.710;12.498;2023-01-26T09:39:35;98961.00;;;-0.02;78.76
49315;BME280;36672;50.710;12.498;2023-01-26T09:42:20;98979.09;;;0.04;77.86
49315;BME280;36672;50.710;12.498;2023-01-26T09:45:08;98981.63;;;0.06;78.29
49315;BME280;36672;50.710;12.498;2023-01-26T09:50:18;98979.81;;;0.06;78.02
49315;BME280;36672;50.710;12.498;2023-01-26T09:52:56;98985.50;;;0.02;77.56
49315;BME280;36672;50.710;12.498;2023-01-26T09:55:24;98971.00;;;-0.06;77.80
49315;BME280;36672;50.710;12.498;2023-01-26T09:58:02;98958.56;;;-0.05;77.69
49315;BME280;36672;50.710;12.498;2023-01-26T10:00:45;98980.19;;;0.13;77.16
49315;BME280;36672;50.710;12.498;2023-01-26T10:03:50;98972.44;;;0.10;76.91
49315;BME280;36672;50.710;12.498;2023-01-26T10:06:28;98959.06;;;0.00;75.93
49315;BME280;36672;50.710;12.498;2023-01-26T10:08:59;98944.09;;;-0.01;77.24
49315;BME280;36672;50.710;12.498;2023-01-26T10:11:32;98948.66;;;0.08;76.89
49315;BME280;36672;50.710;12.498;2023-01-26T10:16:55;98945.75;;;0.11;76.80
49315;BME280;36672;50.710;12.498;2023-01-26T10:19:41;98969.16;;;0.29;76.39
49315;BME280;36672;50.710;12.498;2023-01-26T10:22:44;98966.75;;;0.26;75.33
49315;BME280;36672;50.710;12.498;2023-01-26T10:25:33;98960.59;;;0.25;75.92
49315;BME280;36672;50.710;12.498;2023-01-26T10:28:03;98938.84;;;0.20;76.24
49315;BME280;36672;50.710;12.498;2023-01-26T10:30:38;98934.00;;;0.25;76.16
49315;BME280;36672;50.710;12.498;2023-01-26T10:33:15;98951.75;;;0.36;75.33
49315;BME280;36672;50.710;12.498;2023-01-26T10:35:42;98948.16;;;0.26;75.31
49315;BME280;36672;50.710;12.498;2023-01-26T10:40:52;98951.56;;;0.17;75.26
49315;BME280;36672;50.710;12.498;2023-01-26T10:43:18;98926.81;;;0.05;75.70
49315;BME280;36672;50.710;12.498;2023-01-26T10:45:46;98950.81;;;0.26;75.46
49315;BME280;36672;50.710;12.498;2023-01-26T10:48:19;98940.56;;;0.21;74.70
49315;BME280;36672;50.710;12.498;2023-01-26T10:50:47;98941.66;;;0.19;74.98
49315;BME280;36672;50.710;12.498;2023-01-26T10:53:22;98939.72;;;0.09;74.50
49315;BME280;36672;50.710;12.498;2023-01-26T10:55:58;98923.06;;;-0.04;74.83
49315;BME280;36672;50.710;12.498;2023-01-26T10:58:46;98941.06;;;0.04;74.74
49315;BME280;36672;50.710;12.498;2023-01-26T11:01:14;98923.31;;;0.04;75.17
49315;BME280;36672;50.710;12.498;2023-01-26T11:04:10;98929.59;;;0.03;74.55
49315;BME280;36672;50.710;12.498;2023-01-26T11:06:39;98938.63;;;0.12;75.00
49315;BME280;36672;50.710;12.498;2023-01-26T11:11:39;98929.59;;;0.03;74.82
49315;BME280;36672;50.710;12.498;2023-01-26T11:14:13;98941.91;;;0.15;74.72
49315;BME280;36672;50.710;12.498;2023-01-26T11:16:42;98946.25;;;0.17;74.89
49315;BME280;36672;50.710;12.498;2023-01-26T11:19:27;98944.56;;;0.15;74.84
49315;BME280;36672;50.710;12.498;2023-01-26T11:21:57;98943.34;;;0.20;74.83
49315;BME280;36672;50.710;12.498;2023-01-26T11:24:25;98944.16;;;0.20;74.73
49315;BME280;36672;50.710;12.498;2023-01-26T11:27:19;98940.56;;;0.21;74.51
49315;BME280;36672;50.710;12.498;2023-01-26T11:30:31;98935.97;;;0.23;74.18
49315;BME280;36672;50.710;12.498;2023-01-26T11:33:12;98919.06;;;0.13;74.35
49315;BME280;36672;50.710;12.498;2023-01-26T11:36:20;98932.09;;;0.16;74.11
49315;BME280;36672;50.710;12.498;2023-01-26T11:38:42;98942.25;;;0.22;74.69
49315;BME280;36672;50.710;12.498;2023-01-26T11:41:23;98913.16;;;0.09;74.29
49315;BME280;36672;50.710;12.498;2023-01-26T12:01:01;98897.34;;;0.19;73.74
49315;BME280;36672;50.710;12.498;2023-01-26T12:03:48;98863.06;;;-0.07;74.38
49315;BME280;36672;50.710;12.498;2023-01-26T12:06:17;98895.88;;;0.15;74.64
49315;BME280;36672;50.710;12.498;2023-01-26T12:08:57;98896.13;;;0.12;74.23
49315;BME280;36672;50.710;12.498;2023-01-26T12:14:20;98891.19;;;0.07;74.81
49315;BME280;36672;50.710;12.498;2023-01-26T12:19:44;98892.75;;;0.10;75.28
49315;BME280;36672;50.710;12.498;2023-01-26T12:22:41;98874.63;;;0.04;74.94
49315;BME280;36672;50.710;12.498;2023-01-26T12:25:21;98880.06;;;0.13;75.27
49315;BME280;36672;50.710;12.498;2023-01-26T12:28:18;98865.69;;;0.05;74.65
49315;BME280;36672;50.710;12.498;2023-01-26T12:33:17;98836.41;;;-0.17;75.77
49315;BME280;36672;50.710;12.498;2023-01-26T12:41:19;98826.63;;;-0.16;75.76
49315;BME280;36672;50.710;12.498;2023-01-26T12:46:23;98826.50;;;-0.14;76.08
49315;BME280;36672;50.710;12.498;2023-01-26T12:48:59;98826.16;;;-0.21;75.92
49315;BME280;36672;50.710;12.498;2023-01-26T12:51:32;98820.25;;;-0.25;75.81
49315;BME280;36672;50.710;12.498;2023-01-26T12:54:14;98830.88;;;-0.25;75.81
49315;BME280;36672;50.710;12.498;2023-01-26T12:56:50;98832.06;;;-0.18;76.08
49315;BME280;36672;50.710;12.498;2023-01-26T12:59:22;98823.63;;;-0.23;76.21
49315;BME280;36672;50.710;12.498;2023-01-26T13:01:49;98832.19;;;-0.19;76.14
49315;BME280;36672;50.710;12.498;2023-01-26T13:04:15;98844.63;;;-0.20;76.28
49315;BME280;36672;50.710;12.498;2023-01-26T13:06:41;98832.78;;;-0.27;76.27
49315;BME280;36672;50.710;12.498;2023-01-26T13:09:24;98803.88;;;-0.53;76.32
49315;BME280;36672;50.710;12.498;2023-01-26T13:11:57;98843.06;;;-0.34;76.57
49315;BME280;36672;50.710;12.498;2023-01-26T13:14:58;98835.47;;;-0.38;76.40
49315;BME280;36672;50.710;12.498;2023-01-26T13:19:53;98835.25;;;-0.35;76.86
49315;BME280;36672;50.710;12.498;2023-01-26T13:35:15;98833.69;;;-0.38;76.52
49315;BME280;36672;50.710;12.498;2023-01-26T13:40:29;98842.59;;;-0.39;76.41
49315;BME280;36672;50.710;12.498;2023-01-26T13:43:02;98823.91;;;-0.48;76.50
49315;BME280;36672;50.710;12.498;2023-01-26T13:45:37;98842.72;;;-0.40;76.78
49315;BME280;36672;50.710;12.498;2023-01-26T13:48:14;98849.47;;;-0.36;76.96
49315;BME280;36672;50.710;12.498;2023-01-26T13:50:41;98843.44;;;-0.38;77.09
49315;BME280;36672;50.710;12.498;2023-01-26T13:53:28;98853.09;;;-0.37;76.88
49315;BME280;36672;50.710;12.498;2023-01-26T13:55:58;98844.53;;;-0.41;77.19
49315;BME280;36672;50.710;12.498;2023-01-26T13:58:24;98846.34;;;-0.41;77.34
49315;BME280;36672;50.710;12.498;2023-01-26T14:01:02;98841.50;;;-0.47;77.28
49315;BME280;36672;50.710;12.498;2023-01-26T14:03:29;98847.16;;;-0.41;77.50
49315;BME280;36672;50.710;12.498;2023-01-26T14:06:05;98844.53;;;-0.41;77.06
49315;BME280;36672;50.710;12.498;2023-01-26T14:08:36;98849.97;;;-0.42;77.39
49315;BME280;36672;50.710;12.498;2023-01-26T14:11:04;98848.88;;;-0.40;77.03
49315;BME280;36672;50.710;12.498;2023-01-26T14:13:39;98811.38;;;-0.69;77.57
49315;BME280;36672;50.710;12.498;2023-01-26T14:16:06;98826.94;;;-0.53;77.41
49315;BME280;36672;50.710;12.498;2023-01-26T14:18:32;98854.44;;;-0.43;77.24
49315;BME280;36672;50.710;12.498;2023-01-26T14:21:16;98826.31;;;-0.57;76.95